createdAt,value
2022-11-29T00:00:28.475Z,52.69
2022-11-29T00:01:28.475Z,53.50
2022-11-29T00:02:29.264Z,53.01
2022-11-29T00:03:28.566Z,53.33
2022-11-29T00:04:28.494Z,54.14
2022-11-29T00:05:28.435Z,55.27
2022-11-29T00:06:28.444Z,58.49
2022-11-29T00:07:28.516Z,55.59
2022-11-29T00:08:29.052Z,57.04
2022-11-29T00:09:28.411Z,56.56
2022-11-29T00:10:29.150Z,54.79
2022-11-29T00:11:28.407Z,56.40
2022-11-29T00:12:28.397Z,56.56
2022-11-29T00:13:28.397Z,67.84
2022-11-29T00:14:28.406Z,57.04
2022-11-29T00:15:28.793Z,56.56
2022-11-29T00:16:28.453Z,57.52
2022-11-29T00:17:28.360Z,57.20
2022-11-29T00:18:28.423Z,59.62
2022-11-29T00:19:28.381Z,56.07
2022-11-29T00:20:28.364Z,56.07
2022-11-29T00:21:28.361Z,58.17
2022-11-29T00:22:28.352Z,60.42
2022-11-29T00:23:29.200Z,62.36
2022-11-29T00:24:28.504Z,69.29
2022-11-29T00:25:28.322Z,58.65
2022-11-29T00:26:28.502Z,57.20
2022-11-29T00:27:28.299Z,61.39
2022-11-29T00:28:28.751Z,61.23
2022-11-29T00:29:28.286Z,69.77
2022-11-29T00:30:28.360Z,55.75
2022-11-29T00:31:28.288Z,55.27
2022-11-29T00:32:28.280Z,60.26
2022-11-29T00:33:28.424Z,58.33
2022-11-29T00:34:28.292Z,60.75
2022-11-29T00:35:28.283Z,62.04
2022-11-29T00:36:28.266Z,57.20
2022-11-29T00:37:28.249Z,61.87
2022-11-29T00:38:28.362Z,60.91
2022-11-29T00:39:28.252Z,62.20
2022-11-29T00:40:28.237Z,57.20
2022-11-29T00:41:28.212Z,68.96
2022-11-29T00:42:28.210Z,71.06
2022-11-29T00:43:28.209Z,58.01
2022-11-29T00:44:28.225Z,54.14
2022-11-29T00:45:28.199Z,60.26
2022-11-29T00:46:28.240Z,61.23
2022-11-29T00:47:28.171Z,64.78
2022-11-29T00:48:28.200Z,62.84
2022-11-29T00:49:28.600Z,60.10
2022-11-29T00:50:28.159Z,58.17
2022-11-29T00:51:28.180Z,63.33
2022-11-29T00:52:28.146Z,58.81
2022-11-29T00:53:28.774Z,56.56
2022-11-29T00:54:28.148Z,54.79
2022-11-29T00:55:28.119Z,57.04
2022-11-29T00:56:28.529Z,61.55
2022-11-29T00:57:28.127Z,60.10
2022-11-29T00:58:28.124Z,63.33
2022-11-29T00:59:28.115Z,60.59
2022-11-29T01:00:28.101Z,54.62
2022-11-29T01:01:28.163Z,56.40
2022-11-29T01:02:28.218Z,61.07
2022-11-29T01:03:28.089Z,58.49
2022-11-29T01:04:28.058Z,62.36
2022-11-29T01:05:28.075Z,63.97
2022-11-29T01:06:28.082Z,56.07
2022-11-29T01:07:28.107Z,61.55
2022-11-29T01:08:28.684Z,62.52
2022-11-29T01:09:28.050Z,61.23
2022-11-29T01:10:28.022Z,58.49
2022-11-29T01:11:28.041Z,61.39
2022-11-29T01:12:28.023Z,62.84
2022-11-29T01:13:28.042Z,57.36
2022-11-29T01:14:28.006Z,60.75
2022-11-29T01:15:28.013Z,55.43
2022-11-29T01:16:28.176Z,59.78
2022-11-29T01:17:27.998Z,60.91
2022-11-29T01:18:27.984Z,61.07
2022-11-29T01:19:27.973Z,57.20
2022-11-29T01:20:27.970Z,64.13
2022-11-29T01:21:27.959Z,63.49
2022-11-29T01:22:28.624Z,55.59
2022-11-29T01:23:28.012Z,58.65
2022-11-29T01:24:27.932Z,54.95
2022-11-29T01:25:27.948Z,60.75
2022-11-29T01:26:28.417Z,56.24
2022-11-29T01:27:27.928Z,68.96
2022-11-29T01:28:27.935Z,60.26
2022-11-29T01:29:27.913Z,59.94
2022-11-29T01:30:27.962Z,55.11
2022-11-29T01:31:28.327Z,63.97
2022-11-29T01:32:27.892Z,60.91
2022-11-29T01:33:27.875Z,67.35
2022-11-29T01:34:27.943Z,58.97
2022-11-29T01:35:27.871Z,62.84
2022-11-29T01:36:27.893Z,56.07
2022-11-29T01:37:27.946Z,60.91
2022-11-29T01:38:27.858Z,68.16
2022-11-29T01:39:27.886Z,54.62
2022-11-29T01:40:28.889Z,53.33
2022-11-29T01:41:27.833Z,53.17
2022-11-29T01:42:27.840Z,55.59
2022-11-29T01:43:27.825Z,57.85
2022-11-29T01:44:27.818Z,56.40
2022-11-29T01:45:28.009Z,54.62
2022-11-29T01:46:27.898Z,55.59
2022-11-29T01:47:27.789Z,55.27
2022-11-29T01:48:27.810Z,55.43
2022-11-29T01:49:27.788Z,60.75
2022-11-29T01:50:27.777Z,55.11
2022-11-29T01:51:29.171Z,68.16
2022-11-29T01:52:27.762Z,64.78
2022-11-29T01:53:27.752Z,58.17
2022-11-29T01:54:27.766Z,53.01
2022-11-29T01:55:27.765Z,59.30
2022-11-29T01:56:28.563Z,54.14
2022-11-29T01:57:27.742Z,62.52
2022-11-29T01:58:27.724Z,61.71
2022-11-29T01:59:27.723Z,62.84
2022-11-29T02:00:27.709Z,54.14
2022-11-29T02:01:27.764Z,61.87
2022-11-29T02:02:27.978Z,56.24
2022-11-29T02:03:27.679Z,61.23
2022-11-29T02:04:27.706Z,55.75
2022-11-29T02:05:27.680Z,58.81
2022-11-29T02:06:27.771Z,59.14
2022-11-29T02:07:28.208Z,59.14
2022-11-29T02:08:27.661Z,59.78
2022-11-29T02:09:27.641Z,57.69
2022-11-29T02:10:28.331Z,56.24
2022-11-29T02:11:27.664Z,56.40
2022-11-29T02:12:27.649Z,57.85
2022-11-29T02:13:27.630Z,68.16
2022-11-29T02:14:27.622Z,69.29
2022-11-29T02:15:27.744Z,60.10
2022-11-29T02:16:27.647Z,60.26
2022-11-29T02:17:28.027Z,55.11
2022-11-29T02:18:27.593Z,54.95
2022-11-29T02:19:27.591Z,56.07
2022-11-29T02:20:27.608Z,55.59
2022-11-29T02:21:27.568Z,59.78
2022-11-29T02:22:27.621Z,61.07
2022-11-29T02:23:28.746Z,55.11
2022-11-29T02:24:27.566Z,57.04
2022-11-29T02:25:27.551Z,60.42
2022-11-29T02:26:27.559Z,59.30
2022-11-29T02:27:27.568Z,67.51
2022-11-29T02:28:27.530Z,58.01
2022-11-29T02:29:28.205Z,54.79
2022-11-29T02:30:27.529Z,62.04
2022-11-29T02:31:27.511Z,55.91
2022-11-29T02:32:27.503Z,54.79
2022-11-29T02:33:27.492Z,57.69
2022-11-29T02:34:27.521Z,60.26
2022-11-29T02:35:27.476Z,54.14
2022-11-29T02:36:27.496Z,53.33
2022-11-29T02:37:27.474Z,54.30
2022-11-29T02:38:27.464Z,55.43
2022-11-29T02:39:27.484Z,56.40
2022-11-29T02:40:27.886Z,54.30
2022-11-29T02:41:27.439Z,54.14
2022-11-29T02:42:27.456Z,53.17
2022-11-29T02:43:27.490Z,55.11
2022-11-29T02:44:27.440Z,56.56
2022-11-29T02:45:27.423Z,57.36
2022-11-29T02:46:27.462Z,54.30
2022-11-29T02:47:27.402Z,52.85
2022-11-29T02:48:27.411Z,55.43
2022-11-29T02:49:28.007Z,53.98
2022-11-29T02:50:27.389Z,56.40
2022-11-29T02:51:27.393Z,58.17
2022-11-29T02:52:27.418Z,57.85
2022-11-29T02:53:27.362Z,52.85
2022-11-29T02:54:27.379Z,58.49
2022-11-29T02:55:27.363Z,67.35
2022-11-29T02:56:27.360Z,56.07
2022-11-29T02:57:27.357Z,56.40
2022-11-29T02:58:28.091Z,53.17
2022-11-29T02:59:27.357Z,53.82
2022-11-29T03:00:27.321Z,54.14
2022-11-29T03:01:27.393Z,57.85
2022-11-29T03:02:27.435Z,52.37
2022-11-29T03:03:27.293Z,54.30
2022-11-29T03:04:27.325Z,53.50
2022-11-29T03:05:27.294Z,52.69
2022-11-29T03:06:27.298Z,54.30
2022-11-29T03:07:27.428Z,55.27
2022-11-29T03:08:27.268Z,52.85
2022-11-29T03:09:27.258Z,53.01
2022-11-29T03:10:27.283Z,54.62
2022-11-29T03:11:28.020Z,54.62
2022-11-29T03:12:27.259Z,52.37
2022-11-29T03:13:27.674Z,53.66
2022-11-29T03:14:27.970Z,55.27
2022-11-29T03:15:27.354Z,53.66
2022-11-29T03:16:27.218Z,51.72
2022-11-29T03:17:27.235Z,61.87
2022-11-29T03:18:27.228Z,55.43
2022-11-29T03:19:27.201Z,54.14
2022-11-29T03:20:27.199Z,51.88
2022-11-29T03:21:27.176Z,52.69
2022-11-29T03:22:27.213Z,51.88
2022-11-29T03:23:27.160Z,56.40
2022-11-29T03:24:27.178Z,55.11
2022-11-29T03:25:27.170Z,66.87
2022-11-29T03:26:27.154Z,70.25
2022-11-29T03:27:27.148Z,69.13
2022-11-29T03:28:28.298Z,65.42
2022-11-29T03:29:27.127Z,63.65
2022-11-29T03:30:27.129Z,51.56
2022-11-29T03:31:27.474Z,54.14
2022-11-29T03:32:27.151Z,55.91
2022-11-29T03:33:27.941Z,54.95
2022-11-29T03:34:27.141Z,53.82
2022-11-29T03:35:27.089Z,52.37
2022-11-29T03:36:27.198Z,51.72
2022-11-29T03:37:27.083Z,54.14
2022-11-29T03:38:27.075Z,54.79
2022-11-29T03:39:27.145Z,57.20
2022-11-29T03:40:27.058Z,62.84
2022-11-29T03:41:27.058Z,64.29
2022-11-29T03:42:27.080Z,54.46
2022-11-29T03:43:27.038Z,50.76
2022-11-29T03:44:27.051Z,57.36
2022-11-29T03:45:27.463Z,51.40
2022-11-29T03:46:27.120Z,52.69
2022-11-29T03:47:27.056Z,51.40
2022-11-29T03:48:27.012Z,51.72
2022-11-29T03:49:27.772Z,63.16
2022-11-29T03:50:27.010Z,55.11
2022-11-29T03:51:26.995Z,59.30
2022-11-29T03:52:26.985Z,56.56
2022-11-29T03:53:26.967Z,57.04
2022-11-29T03:54:27.078Z,59.14
2022-11-29T03:55:27.003Z,56.07
2022-11-29T03:56:27.206Z,53.66
2022-11-29T03:57:26.955Z,51.56
2022-11-29T03:58:26.944Z,51.08
2022-11-29T03:59:26.941Z,52.05
2022-11-29T04:00:26.969Z,50.43
2022-11-29T04:01:27.391Z,49.95
2022-11-29T04:02:26.997Z,51.40
2022-11-29T04:03:26.935Z,50.60
2022-11-29T04:04:26.922Z,49.31
2022-11-29T04:05:26.922Z,50.60
2022-11-29T04:06:26.896Z,68.16
2022-11-29T04:07:26.940Z,60.10
2022-11-29T04:08:26.883Z,53.50
2022-11-29T04:09:27.576Z,51.40
2022-11-29T04:10:26.881Z,63.00
2022-11-29T04:11:26.855Z,54.46
2022-11-29T04:12:26.868Z,50.11
2022-11-29T04:13:26.853Z,50.76
2022-11-29T04:14:26.862Z,50.76
2022-11-29T04:15:28.032Z,47.86
2022-11-29T04:16:26.827Z,50.92
2022-11-29T04:17:26.815Z,51.56
2022-11-29T04:18:26.830Z,50.76
2022-11-29T04:19:26.846Z,48.18
2022-11-29T04:20:26.816Z,50.60
2022-11-29T04:21:26.801Z,49.79
2022-11-29T04:22:26.788Z,60.42
2022-11-29T04:23:26.772Z,52.37
2022-11-29T04:24:26.792Z,65.26
2022-11-29T04:25:27.045Z,55.59
2022-11-29T04:26:30.821Z,50.76
2022-11-29T04:27:27.764Z,52.05
2022-11-29T04:28:26.742Z,48.66
2022-11-29T04:29:26.761Z,49.15
2022-11-29T04:30:26.732Z,49.79
2022-11-29T04:31:26.853Z,49.47
2022-11-29T04:32:26.731Z,48.18
2022-11-29T04:33:26.721Z,50.60
2022-11-29T04:34:26.718Z,47.37
2022-11-29T04:35:26.735Z,48.34
2022-11-29T04:36:26.893Z,49.31
2022-11-29T04:37:26.715Z,50.27
2022-11-29T04:38:26.706Z,48.18
2022-11-29T04:39:26.682Z,50.43
2022-11-29T04:40:26.687Z,48.66
2022-11-29T04:41:26.723Z,49.47
2022-11-29T04:42:26.656Z,48.98
2022-11-29T04:43:26.688Z,52.53
2022-11-29T04:44:26.653Z,51.40
2022-11-29T04:45:26.640Z,49.15
2022-11-29T04:46:26.731Z,51.40
2022-11-29T04:47:26.831Z,49.63
2022-11-29T04:48:26.608Z,49.31
2022-11-29T04:49:26.624Z,48.98
2022-11-29T04:50:26.595Z,49.95
2022-11-29T04:51:27.079Z,51.72
2022-11-29T04:52:26.607Z,49.47
2022-11-29T04:53:26.585Z,47.37
2022-11-29T04:54:26.566Z,49.47
2022-11-29T04:55:30.915Z,49.47
2022-11-29T04:56:26.998Z,49.15
2022-11-29T04:57:26.930Z,50.76
2022-11-29T04:58:26.557Z,47.70
2022-11-29T04:59:26.556Z,48.82
2022-11-29T05:00:26.539Z,50.27
2022-11-29T05:01:26.610Z,54.14
2022-11-29T05:02:26.569Z,48.82
2022-11-29T05:03:27.537Z,50.43
2022-11-29T05:04:26.518Z,53.01
2022-11-29T05:05:26.597Z,50.11
2022-11-29T05:06:26.506Z,62.04
2022-11-29T05:07:26.542Z,50.43
2022-11-29T05:08:26.496Z,49.79
2022-11-29T05:09:27.701Z,49.15
2022-11-29T05:10:26.508Z,49.47
2022-11-29T05:11:27.135Z,49.47
2022-11-29T05:12:26.463Z,50.60
2022-11-29T05:13:26.462Z,49.31
2022-11-29T05:14:26.452Z,52.05
2022-11-29T05:15:26.453Z,49.47
2022-11-29T05:16:26.582Z,49.63
2022-11-29T05:17:29.357Z,52.05
2022-11-29T05:18:26.506Z,52.69
2022-11-29T05:19:26.410Z,55.43
2022-11-29T05:20:26.418Z,63.16
2022-11-29T05:21:26.427Z,70.25
2022-11-29T05:22:26.409Z,49.95
2022-11-29T05:23:26.436Z,50.27
2022-11-29T05:24:26.583Z,52.53
2022-11-29T05:25:26.374Z,50.11
2022-11-29T05:26:26.385Z,50.76
2022-11-29T05:27:26.378Z,49.47
2022-11-29T05:28:26.381Z,48.82
2022-11-29T05:29:26.363Z,51.40
2022-11-29T05:30:27.018Z,64.45
2022-11-29T05:31:26.410Z,53.66
2022-11-29T05:32:26.344Z,48.66
2022-11-29T05:33:26.342Z,49.63
2022-11-29T05:34:31.706Z,50.76
2022-11-29T05:35:27.767Z,48.82
2022-11-29T05:36:26.331Z,50.27
2022-11-29T05:37:26.299Z,50.27
2022-11-29T05:38:26.322Z,48.98
2022-11-29T05:39:26.311Z,49.15
2022-11-29T05:40:26.406Z,67.03
2022-11-29T05:41:26.322Z,56.24
2022-11-29T05:42:26.312Z,53.98
2022-11-29T05:43:26.820Z,52.53
2022-11-29T05:44:26.262Z,48.50
2022-11-29T05:45:26.260Z,49.31
2022-11-29T05:46:26.317Z,48.02
2022-11-29T05:47:31.184Z,48.50
2022-11-29T05:48:27.275Z,45.92
2022-11-29T05:49:26.219Z,46.41
2022-11-29T05:50:26.968Z,49.63
2022-11-29T05:51:26.639Z,59.14
2022-11-29T05:52:26.631Z,47.86
2022-11-29T05:53:47.207Z,47.05
2022-11-29T05:54:26.193Z,54.79
2022-11-29T05:55:26.223Z,47.05
2022-11-29T05:56:26.215Z,49.47
2022-11-29T05:57:26.161Z,47.21
2022-11-29T05:58:30.329Z,46.73
2022-11-29T05:59:26.178Z,47.37
2022-11-29T06:00:26.195Z,48.34
2022-11-29T06:01:26.222Z,52.37
2022-11-29T06:02:26.300Z,48.18
2022-11-29T06:03:26.134Z,46.73
2022-11-29T06:04:26.137Z,49.63
2022-11-29T06:05:26.140Z,46.41
2022-11-29T06:06:26.142Z,48.34
2022-11-29T06:07:28.085Z,47.86
2022-11-29T06:08:26.116Z,48.02
2022-11-29T06:09:26.101Z,49.31
2022-11-29T06:10:26.115Z,47.86
2022-11-29T06:11:26.112Z,48.50
2022-11-29T06:12:26.093Z,47.21
2022-11-29T06:13:26.126Z,48.02
2022-11-29T06:14:26.734Z,59.46
2022-11-29T06:15:26.085Z,50.27
2022-11-29T06:16:26.151Z,54.30
2022-11-29T06:17:26.055Z,56.40
2022-11-29T06:18:26.059Z,63.81
2022-11-29T06:19:26.018Z,54.95
2022-11-29T06:20:26.034Z,56.88
2022-11-29T06:21:26.036Z,57.36
2022-11-29T06:22:26.004Z,68.00
2022-11-29T06:23:25.997Z,59.46
2022-11-29T06:24:26.335Z,61.39
2022-11-29T06:25:25.971Z,60.59
2022-11-29T06:26:26.425Z,59.78
2022-11-29T06:27:25.998Z,61.39
2022-11-29T06:28:25.997Z,60.91
2022-11-29T06:29:25.957Z,60.10
2022-11-29T06:30:26.025Z,61.87
2022-11-29T06:31:26.000Z,55.75
2022-11-29T06:32:26.392Z,56.07
2022-11-29T06:33:25.933Z,66.55
2022-11-29T06:34:30.496Z,73.80
2022-11-29T06:35:26.914Z,81.21
2022-11-29T06:36:25.918Z,76.22
2022-11-29T06:37:25.914Z,73.64
2022-11-29T06:38:25.920Z,66.87
2022-11-29T06:39:25.877Z,68.80
2022-11-29T06:40:25.880Z,56.07
2022-11-29T06:41:26.646Z,80.57
2022-11-29T06:42:25.883Z,67.19
2022-11-29T06:43:25.888Z,68.96
2022-11-29T06:44:25.870Z,83.14
2022-11-29T06:45:25.843Z,61.39
2022-11-29T06:46:25.954Z,63.97
2022-11-29T06:47:25.846Z,77.34
2022-11-29T06:48:25.859Z,76.22
2022-11-29T06:49:25.817Z,64.94
2022-11-29T06:50:25.828Z,61.23
2022-11-29T06:51:25.800Z,59.30
2022-11-29T06:52:25.803Z,73.32
2022-11-29T06:53:25.873Z,69.77
2022-11-29T06:54:25.800Z,61.71
2022-11-29T06:55:26.688Z,66.06
2022-11-29T06:56:25.794Z,69.77
2022-11-29T06:57:25.776Z,59.94
2022-11-29T06:58:25.774Z,63.16
2022-11-29T06:59:25.769Z,58.97
2022-11-29T07:00:25.747Z,60.42
2022-11-29T07:01:26.019Z,54.79
2022-11-29T07:02:25.883Z,77.99
2022-11-29T07:03:25.727Z,63.65
2022-11-29T07:04:25.736Z,69.61
2022-11-29T07:05:25.731Z,80.57
2022-11-29T07:06:26.141Z,68.48
2022-11-29T07:07:25.813Z,62.36
2022-11-29T07:08:25.725Z,59.78
2022-11-29T07:09:25.685Z,57.52
2022-11-29T07:10:25.699Z,57.20
2022-11-29T07:11:25.692Z,72.51
2022-11-29T07:12:25.701Z,65.90
2022-11-29T07:13:25.680Z,58.97
2022-11-29T07:14:25.683Z,65.90
2022-11-29T07:15:25.677Z,67.35
2022-11-29T07:16:25.703Z,71.22
2022-11-29T07:17:25.664Z,72.03
2022-11-29T07:18:25.641Z,60.59
2022-11-29T07:19:25.614Z,54.95
2022-11-29T07:20:25.633Z,78.96
2022-11-29T07:21:25.619Z,72.99
2022-11-29T07:22:26.354Z,80.57
2022-11-29T07:23:25.602Z,80.57
2022-11-29T07:24:25.638Z,62.84
2022-11-29T07:25:25.580Z,67.68
2022-11-29T07:26:25.600Z,63.16
2022-11-29T07:27:25.559Z,65.90
2022-11-29T07:28:25.970Z,65.90
2022-11-29T07:29:25.561Z,68.80
2022-11-29T07:30:25.577Z,65.10
2022-11-29T07:31:25.627Z,69.13
2022-11-29T07:32:25.539Z,51.24
2022-11-29T07:33:25.663Z,52.05
2022-11-29T07:34:25.597Z,73.48
2022-11-29T07:35:25.558Z,69.93
2022-11-29T07:36:25.551Z,68.80
2022-11-29T07:37:25.524Z,57.36
2022-11-29T07:38:25.490Z,56.56
2022-11-29T07:39:26.277Z,77.83
2022-11-29T07:40:25.502Z,60.91
2022-11-29T07:41:25.516Z,60.10
2022-11-29T07:42:25.475Z,80.57
2022-11-29T07:43:25.780Z,63.33
2022-11-29T07:44:25.726Z,57.04
2022-11-29T07:45:25.488Z,56.07
2022-11-29T07:46:25.537Z,71.22
2022-11-29T07:47:25.520Z,77.67
2022-11-29T07:48:25.443Z,53.82
2022-11-29T07:49:25.439Z,80.57
2022-11-29T07:50:26.266Z,52.69
2022-11-29T07:51:25.461Z,49.79
2022-11-29T07:52:25.413Z,50.43
2022-11-29T07:53:25.495Z,50.27
2022-11-29T07:54:25.412Z,55.27
2022-11-29T07:55:25.873Z,57.36
2022-11-29T07:56:25.374Z,56.88
2022-11-29T07:57:25.394Z,74.44
2022-11-29T07:58:25.396Z,81.05
2022-11-29T07:59:25.381Z,77.34
2022-11-29T08:00:27.622Z,80.08
2022-11-29T08:01:25.393Z,71.06
2022-11-29T08:02:25.412Z,55.59
2022-11-29T08:03:25.517Z,54.46
2022-11-29T08:04:25.326Z,55.91
2022-11-29T08:05:25.340Z,55.27
2022-11-29T08:06:25.339Z,63.33
2022-11-29T08:07:25.536Z,58.97
2022-11-29T08:08:25.299Z,63.49
2022-11-29T08:09:25.325Z,63.49
2022-11-29T08:10:25.401Z,60.42
2022-11-29T08:11:25.360Z,74.28
2022-11-29T08:12:25.283Z,75.25
2022-11-29T08:13:25.315Z,77.83
2022-11-29T08:14:25.284Z,59.94
2022-11-29T08:15:25.295Z,60.42
2022-11-29T08:16:25.328Z,50.92
2022-11-29T08:17:25.952Z,62.84
2022-11-29T08:18:25.236Z,64.29
2022-11-29T08:19:25.259Z,60.42
2022-11-29T08:20:25.378Z,58.49
2022-11-29T08:21:25.261Z,62.84
2022-11-29T08:22:25.217Z,77.67
2022-11-29T08:23:25.757Z,68.32
2022-11-29T08:24:25.240Z,61.23
2022-11-29T08:25:25.210Z,58.49
2022-11-29T08:26:29.821Z,80.24
2022-11-29T08:27:26.183Z,79.76
2022-11-29T08:28:25.179Z,69.45
2022-11-29T08:29:25.194Z,68.96
2022-11-29T08:30:25.221Z,68.48
2022-11-29T08:31:25.192Z,64.94
2022-11-29T08:32:25.151Z,65.42
2022-11-29T08:33:25.246Z,63.65
2022-11-29T08:34:25.137Z,59.46
2022-11-29T08:35:25.157Z,69.29
2022-11-29T08:36:25.180Z,71.38
2022-11-29T08:37:25.131Z,70.58
2022-11-29T08:38:25.478Z,77.18
2022-11-29T08:39:25.108Z,79.60
2022-11-29T08:40:25.104Z,79.12
2022-11-29T08:41:25.095Z,83.63
2022-11-29T08:42:25.094Z,82.34
2022-11-29T08:43:25.739Z,81.05
2022-11-29T08:44:25.066Z,79.92
2022-11-29T08:45:25.168Z,78.15
2022-11-29T08:46:25.090Z,78.15
2022-11-29T08:47:25.462Z,81.05
2022-11-29T08:48:25.060Z,81.69
2022-11-29T08:49:25.172Z,82.34
2022-11-29T08:50:25.046Z,75.57
2022-11-29T08:51:25.070Z,75.25
2022-11-29T08:52:25.989Z,80.24
2022-11-29T08:53:25.033Z,82.50
2022-11-29T08:54:25.016Z,78.31
2022-11-29T08:55:25.018Z,79.92
2022-11-29T08:57:10.257Z,80.73
2022-11-29T08:57:41.592Z,82.66
2022-11-29T08:58:25.986Z,80.24
2022-11-29T08:59:24.975Z,79.76
2022-11-29T09:00:24.990Z,79.44
2022-11-29T09:01:25.109Z,77.99
2022-11-29T09:02:25.053Z,76.38
2022-11-29T09:03:25.407Z,75.73
2022-11-29T09:04:24.934Z,74.77
2022-11-29T09:05:24.975Z,74.44
2022-11-29T09:06:24.923Z,78.96
2022-11-29T09:07:24.998Z,82.50
2022-11-29T09:08:25.347Z,85.08
2022-11-29T09:09:46.562Z,83.79
2022-11-29T09:10:24.943Z,72.99
2022-11-29T09:11:24.900Z,81.69
2022-11-29T09:12:24.894Z,82.34
2022-11-29T09:13:24.893Z,82.34
2022-11-29T09:14:24.878Z,82.18
2022-11-29T09:15:24.931Z,82.02
2022-11-29T09:16:24.890Z,78.79
2022-11-29T09:17:24.885Z,81.86
2022-11-29T09:18:24.837Z,77.83
2022-11-29T09:19:25.458Z,74.77
2022-11-29T09:20:24.841Z,80.57
2022-11-29T09:21:24.841Z,83.63
2022-11-29T09:22:24.838Z,84.59
2022-11-29T09:23:24.918Z,84.27
2022-11-29T09:24:24.794Z,74.28
2022-11-29T09:25:25.233Z,78.79
2022-11-29T09:26:24.791Z,80.89
2022-11-29T09:27:24.783Z,75.41
2022-11-29T09:28:24.793Z,74.93
2022-11-29T09:29:24.771Z,74.77
2022-11-29T09:30:24.906Z,74.93
2022-11-29T09:31:24.828Z,76.38
2022-11-29T09:32:25.169Z,76.38
2022-11-29T09:33:24.758Z,71.22
2022-11-29T09:34:24.820Z,71.70
2022-11-29T09:35:24.730Z,71.54
2022-11-29T09:36:28.424Z,76.38
2022-11-29T09:37:24.711Z,71.54
2022-11-29T09:38:24.733Z,78.79
2022-11-29T09:39:24.758Z,79.12
2022-11-29T09:40:24.703Z,86.85
2022-11-29T09:41:24.713Z,59.14
2022-11-29T09:42:24.718Z,80.24
2022-11-29T09:43:24.686Z,73.32
2022-11-29T09:44:25.888Z,69.45
2022-11-29T09:45:24.674Z,66.39
2022-11-29T09:46:24.696Z,65.42
2022-11-29T09:47:24.655Z,61.55
2022-11-29T09:48:24.692Z,63.33
2022-11-29T09:49:24.636Z,66.23
2022-11-29T09:50:24.695Z,75.57
2022-11-29T09:51:24.656Z,69.45
2022-11-29T09:52:24.673Z,68.00
2022-11-29T09:53:25.870Z,71.22
2022-11-29T09:54:24.624Z,78.96
2022-11-29T09:55:24.653Z,64.13
2022-11-29T09:56:24.626Z,62.84
2022-11-29T09:57:24.594Z,66.55
2022-11-29T09:58:24.582Z,81.21
2022-11-29T09:59:27.441Z,64.13
2022-11-29T10:00:24.586Z,59.94
2022-11-29T10:01:24.673Z,62.36
2022-11-29T10:02:24.617Z,64.45
2022-11-29T10:03:24.561Z,63.65
2022-11-29T10:04:25.270Z,65.10
2022-11-29T10:05:24.531Z,70.09
2022-11-29T10:06:24.523Z,73.80
2022-11-29T10:07:24.599Z,78.79
2022-11-29T10:08:24.532Z,68.64
2022-11-29T10:09:24.495Z,65.10
2022-11-29T10:10:24.548Z,79.44
2022-11-29T10:11:24.530Z,79.12
2022-11-29T10:12:24.483Z,66.06
2022-11-29T10:13:24.469Z,71.06
2022-11-29T10:14:24.489Z,79.92
2022-11-29T10:15:25.156Z,65.74
2022-11-29T10:16:24.568Z,64.61
2022-11-29T10:17:24.454Z,69.93
2022-11-29T10:18:24.445Z,68.96
2022-11-29T10:19:24.429Z,65.42
2022-11-29T10:20:24.476Z,65.58
2022-11-29T10:21:24.418Z,77.50
2022-11-29T10:22:25.317Z,80.08
2022-11-29T10:23:24.428Z,59.46
2022-11-29T10:24:24.403Z,65.10
2022-11-29T10:25:24.403Z,71.54
2022-11-29T10:26:24.620Z,68.48
2022-11-29T10:27:24.414Z,64.94
2022-11-29T10:28:24.370Z,54.46
2022-11-29T10:29:24.384Z,62.20
2022-11-29T10:30:24.438Z,62.20
2022-11-29T10:31:24.774Z,77.99
2022-11-29T10:32:26.197Z,66.23
2022-11-29T10:33:24.356Z,81.37
2022-11-29T10:34:24.329Z,70.90
2022-11-29T10:35:24.344Z,53.82
2022-11-29T10:36:24.307Z,66.39
2022-11-29T10:37:24.327Z,65.90
2022-11-29T10:38:32.102Z,56.88
2022-11-29T10:39:25.296Z,55.11
2022-11-29T10:40:24.296Z,64.29
2022-11-29T10:41:24.286Z,61.71
2022-11-29T10:42:24.512Z,61.39
2022-11-29T10:43:24.316Z,61.87
2022-11-29T10:44:24.276Z,58.33
2022-11-29T10:45:24.261Z,54.95
2022-11-29T10:46:24.271Z,56.72
2022-11-29T10:47:24.255Z,74.12
2022-11-29T10:48:24.313Z,82.98
2022-11-29T10:49:24.978Z,66.23
2022-11-29T10:50:24.224Z,69.29
2022-11-29T10:51:24.210Z,64.13
2022-11-29T10:52:24.207Z,67.51
2022-11-29T10:53:24.245Z,58.01
2022-11-29T10:54:24.200Z,58.17
2022-11-29T10:55:24.233Z,66.06
2022-11-29T10:56:24.292Z,59.94
2022-11-29T10:57:24.255Z,63.65
2022-11-29T10:58:27.947Z,75.89
2022-11-29T10:59:24.256Z,81.86
2022-11-29T11:00:24.195Z,68.96
2022-11-29T11:01:24.263Z,63.16
2022-11-29T11:02:25.128Z,62.36
2022-11-29T11:03:24.129Z,53.66
2022-11-29T11:04:24.122Z,48.82
2022-11-29T11:05:25.004Z,56.88
2022-11-29T11:06:24.188Z,57.04
2022-11-29T11:07:24.663Z,50.27
2022-11-29T11:08:24.478Z,80.73
2022-11-29T11:09:24.233Z,74.12
2022-11-29T11:10:24.080Z,57.36
2022-11-29T11:11:24.091Z,56.40
2022-11-29T11:12:24.079Z,56.07
2022-11-29T11:13:24.059Z,62.36
2022-11-29T11:14:24.034Z,60.91
2022-11-29T11:15:24.087Z,53.50
2022-11-29T11:16:25.086Z,51.88
2022-11-29T11:17:24.046Z,50.76
2022-11-29T11:18:24.122Z,55.11
2022-11-29T11:19:24.538Z,67.19
2022-11-29T11:20:23.992Z,63.33
2022-11-29T11:21:24.145Z,46.57
2022-11-29T11:22:23.989Z,46.89
2022-11-29T11:23:24.028Z,54.14
2022-11-29T11:24:23.988Z,61.23
2022-11-29T11:25:23.963Z,61.39
2022-11-29T11:26:24.012Z,56.56
2022-11-29T11:27:24.050Z,67.03
2022-11-29T11:28:23.940Z,67.35
2022-11-29T11:29:23.951Z,64.94
2022-11-29T11:30:23.940Z,62.36
2022-11-29T11:31:24.020Z,54.79
2022-11-29T11:32:23.935Z,59.30
2022-11-29T11:33:24.740Z,60.26
2022-11-29T11:34:23.903Z,52.85
2022-11-29T11:35:23.914Z,63.49
2022-11-29T11:36:23.906Z,69.29
2022-11-29T11:37:23.899Z,76.86
2022-11-29T11:38:23.887Z,63.49
2022-11-29T11:39:23.919Z,64.13
2022-11-29T11:40:23.993Z,66.06
2022-11-29T11:41:23.865Z,66.06
2022-11-29T11:42:24.479Z,68.00
2022-11-29T11:43:23.861Z,71.22
2022-11-29T11:44:46.378Z,65.42
2022-11-29T11:45:24.850Z,70.58
2022-11-29T11:46:24.514Z,65.74
2022-11-29T11:47:23.839Z,69.61
2022-11-29T11:48:24.009Z,71.54
2022-11-29T11:49:23.846Z,75.57
2022-11-29T11:50:23.823Z,70.90
2022-11-29T11:51:23.796Z,67.35
2022-11-29T11:52:23.789Z,68.96
2022-11-29T11:53:23.771Z,70.25
2022-11-29T11:54:23.769Z,69.93
2022-11-29T11:55:23.793Z,70.74
2022-11-29T11:56:23.751Z,70.58
2022-11-29T11:57:23.776Z,74.12
2022-11-29T11:58:23.745Z,70.58
2022-11-29T11:59:23.734Z,70.74
2022-11-29T12:00:47.525Z,72.03
2022-11-29T12:01:24.734Z,68.64
2022-11-29T12:02:23.844Z,77.83
2022-11-29T12:03:23.904Z,66.71
2022-11-29T12:04:23.699Z,63.65
2022-11-29T12:05:23.735Z,66.87
2022-11-29T12:06:23.679Z,64.29
2022-11-29T12:07:45.191Z,64.45
2022-11-29T12:08:24.709Z,61.39
2022-11-29T12:09:23.697Z,61.87
2022-11-29T12:10:23.665Z,66.06
2022-11-29T12:11:23.647Z,66.06
2022-11-29T12:12:23.641Z,62.84
2022-11-29T12:13:23.669Z,54.46
2022-11-29T12:14:23.620Z,59.46
2022-11-29T12:15:23.641Z,67.03
2022-11-29T12:16:23.605Z,67.68
2022-11-29T12:17:23.618Z,66.55
2022-11-29T12:18:23.615Z,64.94
2022-11-29T12:19:23.878Z,58.81
2022-11-29T12:20:23.576Z,66.55
2022-11-29T12:21:23.603Z,67.51
2022-11-29T12:22:23.580Z,57.85
2022-11-29T12:23:23.998Z,67.35
2022-11-29T12:24:23.701Z,72.35
2022-11-29T12:25:23.635Z,65.58
2022-11-29T12:26:55.295Z,65.42
2022-11-29T12:27:24.553Z,66.06
2022-11-29T12:28:23.521Z,63.33
2022-11-29T12:29:23.554Z,79.28
2022-11-29T12:30:23.529Z,59.94
2022-11-29T12:31:23.535Z,80.41
2022-11-29T12:32:23.514Z,71.38
2022-11-29T12:33:23.493Z,72.03
2022-11-29T12:34:23.493Z,67.35
2022-11-29T12:35:23.536Z,63.16
2022-11-29T12:36:23.465Z,68.48
2022-11-29T12:37:23.486Z,60.10
2022-11-29T12:38:23.468Z,62.84
2022-11-29T12:39:23.458Z,64.61
2022-11-29T12:40:23.473Z,64.78
2022-11-29T12:41:23.463Z,78.79
2022-11-29T12:42:23.578Z,56.56
2022-11-29T12:43:23.442Z,79.76
2022-11-29T12:44:23.419Z,79.76
2022-11-29T12:45:23.448Z,64.13
2022-11-29T12:46:23.470Z,62.68
2022-11-29T12:47:38.833Z,66.87
2022-11-29T12:48:24.413Z,78.96
2022-11-29T12:49:23.406Z,63.33
2022-11-29T12:50:23.372Z,78.31
2022-11-29T12:51:23.413Z,69.29
2022-11-29T12:52:24.005Z,72.83